createdAt,value
2023-04-09T00:02:11.083Z,19.13
2023-04-09T00:04:37.850Z,17.98
2023-04-09T00:07:05.372Z,18.63
2023-04-09T00:09:32.531Z,19.48
2023-04-09T00:11:59.402Z,19.67
2023-04-09T00:14:26.169Z,19.33
2023-04-09T00:16:52.846Z,18.45
2023-04-09T00:19:20.056Z,19.60
2023-04-09T00:21:47.079Z,20.20
2023-04-09T00:24:13.811Z,19.00
2023-04-09T00:26:40.430Z,19.92
2023-04-09T00:29:07.235Z,20.15
2023-04-09T00:31:36.198Z,18.58
2023-04-09T00:34:02.902Z,20.27
2023-04-09T00:36:29.620Z,19.60
2023-04-09T00:39:01.210Z,19.50
2023-04-09T00:41:28.267Z,19.52
2023-04-09T00:43:57.367Z,20.58
2023-04-09T00:46:24.006Z,20.92
2023-04-09T00:48:51.509Z,21.88
2023-04-09T00:51:18.552Z,20.65
2023-04-09T00:53:45.977Z,19.60
2023-04-09T00:56:14.081Z,19.73
2023-04-09T00:58:41.771Z,18.63
2023-04-09T01:01:08.578Z,20.45
2023-04-09T01:03:37.999Z,19.55
2023-04-09T01:06:11.371Z,19.50
2023-04-09T01:08:59.153Z,20.70
2023-04-09T01:11:36.026Z,20.25
2023-04-09T01:14:09.002Z,20.48
2023-04-09T01:16:45.062Z,20.48
2023-04-09T01:19:37.931Z,20.17
2023-04-09T01:22:17.999Z,20.85
2023-04-09T01:25:03.569Z,19.90
2023-04-09T01:28:09.133Z,19.98
2023-04-09T01:30:36.472Z,19.77
2023-04-09T01:33:06.392Z,20.50
2023-04-09T01:35:33.130Z,20.52
2023-04-09T01:38:01.561Z,20.50
2023-04-09T01:40:28.276Z,19.30
2023-04-09T01:42:56.587Z,20.52
2023-04-09T01:45:23.281Z,21.05
2023-04-09T01:47:50.326Z,20.30
2023-04-09T01:50:17.135Z,19.17
2023-04-09T01:52:46.179Z,20.98
2023-04-09T01:55:12.899Z,19.35
2023-04-09T01:57:39.708Z,19.92
2023-04-09T02:00:10.614Z,20.33
2023-04-09T02:02:46.880Z,18.70
2023-04-09T02:05:18.081Z,19.27
2023-04-09T02:07:48.849Z,20.83
2023-04-09T02:10:20.435Z,18.92
2023-04-09T02:12:51.672Z,20.67
2023-04-09T02:15:20.549Z,20.40
2023-04-09T02:17:47.653Z,20.20
2023-04-09T02:20:20.107Z,20.50
2023-04-09T02:22:49.893Z,19.95
2023-04-09T02:25:19.353Z,21.50
2023-04-09T02:27:46.144Z,21.33
2023-04-09T02:30:12.839Z,20.98
2023-04-09T02:32:41.856Z,19.92
2023-04-09T02:35:08.763Z,20.92
2023-04-09T02:37:35.460Z,21.38
2023-04-09T02:40:02.113Z,21.80
2023-04-09T02:42:28.854Z,20.05
2023-04-09T02:44:55.824Z,20.88
2023-04-09T02:47:22.583Z,21.98
2023-04-09T02:49:49.214Z,21.80
2023-04-09T02:52:16.161Z,20.83
2023-04-09T02:54:42.993Z,21.65
2023-04-09T02:57:09.818Z,20.48
2023-04-09T02:59:40.721Z,20.60
2023-04-09T03:02:07.829Z,20.90
2023-04-09T03:04:34.552Z,21.38
2023-04-09T03:07:01.357Z,20.50
2023-04-09T03:09:30.966Z,20.75
2023-04-09T03:11:58.048Z,22.70
2023-04-09T03:14:28.432Z,21.90
2023-04-09T03:16:57.203Z,23.70
2023-04-09T03:19:24.047Z,23.35
2023-04-09T03:21:51.561Z,22.48
2023-04-09T03:24:18.310Z,23.48
2023-04-09T03:26:47.083Z,22.58
2023-04-09T03:29:16.490Z,22.30
2023-04-09T03:31:45.433Z,24.25
2023-04-09T03:34:12.197Z,23.85
2023-04-09T03:36:39.174Z,23.48
2023-04-09T03:39:05.899Z,24.70
2023-04-09T03:41:33.525Z,24.52
2023-04-09T03:44:02.277Z,24.67
2023-04-09T03:46:29.017Z,24.95
2023-04-09T03:48:58.046Z,25.10
2023-04-09T03:51:24.756Z,25.92
2023-04-09T03:53:53.592Z,26.70
2023-04-09T03:56:20.546Z,24.85
2023-04-09T03:58:49.848Z,24.65
2023-04-09T04:01:16.829Z,26.00
2023-04-09T04:03:43.937Z,25.73
2023-04-09T04:06:13.233Z,25.65
2023-04-09T04:08:39.987Z,24.58
2023-04-09T04:11:06.743Z,24.17
2023-04-09T04:13:36.249Z,25.65
2023-04-09T04:16:07.753Z,25.70
2023-04-09T04:18:34.488Z,25.35
2023-04-09T04:21:01.243Z,26.35
2023-04-09T04:23:28.134Z,26.52
2023-04-09T04:25:54.953Z,26.30
2023-04-09T04:28:24.154Z,26.88
2023-04-09T04:30:51.050Z,26.40
2023-04-09T04:33:17.823Z,27.13
2023-04-09T04:35:44.487Z,26.20
2023-04-09T04:38:13.638Z,25.77
2023-04-09T04:40:40.260Z,26.60
2023-04-09T04:43:09.417Z,26.50
2023-04-09T04:45:36.238Z,24.73
2023-04-09T04:48:03.064Z,22.67
2023-04-09T04:50:33.226Z,24.08
2023-04-09T04:53:02.471Z,22.95
2023-04-09T04:55:29.346Z,24.08
2023-04-09T04:57:58.241Z,22.70
2023-04-09T05:00:25.018Z,22.88
2023-04-09T05:02:53.953Z,22.33
2023-04-09T05:05:20.906Z,22.40
2023-04-09T05:07:47.752Z,22.08
2023-04-09T05:10:14.565Z,21.55
2023-04-09T05:12:41.665Z,21.42
2023-04-09T05:15:08.648Z,21.67
2023-04-09T05:17:35.528Z,20.27
2023-04-09T05:20:04.392Z,20.90
2023-04-09T05:22:31.027Z,21.83
2023-04-09T05:24:57.839Z,20.95
2023-04-09T05:27:26.418Z,20.80
2023-04-09T05:29:53.150Z,20.45
2023-04-09T05:32:21.964Z,19.95
2023-04-09T05:34:48.714Z,21.52
2023-04-09T05:37:17.784Z,21.40
2023-04-09T05:39:44.714Z,21.27
2023-04-09T05:42:11.579Z,21.25
2023-04-09T05:44:38.602Z,20.42
2023-04-09T05:47:05.682Z,20.48
2023-04-09T05:49:32.444Z,21.23
2023-04-09T05:52:01.437Z,21.73
2023-04-09T05:54:28.149Z,20.38
2023-04-09T05:56:54.917Z,22.05
2023-04-09T05:59:21.706Z,21.10
2023-04-09T06:01:51.251Z,21.35
2023-04-09T06:04:20.466Z,20.50
2023-04-09T06:06:47.351Z,20.75
2023-04-09T06:09:13.961Z,20.02
2023-04-09T06:11:43.340Z,19.77
2023-04-09T06:14:16.591Z,20.10
2023-04-09T06:16:43.585Z,20.42
2023-04-09T06:19:12.510Z,21.20
2023-04-09T06:21:40.843Z,20.80
2023-04-09T06:24:07.924Z,20.92
2023-04-09T06:26:34.854Z,21.25
2023-04-09T06:29:01.641Z,20.33
2023-04-09T06:31:28.665Z,21.02
2023-04-09T06:33:55.840Z,21.42
2023-04-09T06:36:23.224Z,20.40
2023-04-09T06:38:50.090Z,20.77
2023-04-09T06:41:17.039Z,19.42
2023-04-09T06:43:46.176Z,20.17
2023-04-09T06:46:14.788Z,20.95
2023-04-09T06:48:44.974Z,20.10
2023-04-09T06:51:11.963Z,20.55
2023-04-09T06:53:41.998Z,20.88
2023-04-09T06:56:09.297Z,19.83
2023-04-09T06:58:36.764Z,20.70
2023-04-09T07:01:03.960Z,21.73
2023-04-09T07:03:31.301Z,21.02
2023-04-09T07:05:59.091Z,20.27
2023-04-09T07:08:26.226Z,21.42
2023-04-09T07:10:53.012Z,21.27
2023-04-09T07:13:20.070Z,20.45
2023-04-09T07:15:46.865Z,22.35
2023-04-09T07:18:13.703Z,20.58
2023-04-09T07:20:43.004Z,19.83
2023-04-09T07:23:09.876Z,20.38
2023-04-09T07:25:36.628Z,21.05
2023-04-09T07:28:03.640Z,21.92
2023-04-09T07:30:33.094Z,23.02
2023-04-09T07:33:00.498Z,21.35
2023-04-09T07:35:27.486Z,22.38
2023-04-09T07:37:54.438Z,22.58
2023-04-09T07:40:24.607Z,22.30
2023-04-09T07:42:51.942Z,23.08
2023-04-09T07:45:18.886Z,23.30
2023-04-09T07:47:50.504Z,21.98
2023-04-09T07:50:17.690Z,22.38
2023-04-09T07:52:44.680Z,23.02
2023-04-09T07:55:12.101Z,22.70
2023-04-09T07:57:43.172Z,23.30
2023-04-09T08:00:10.942Z,21.67
2023-04-09T08:02:37.636Z,22.73
2023-04-09T08:05:04.755Z,23.80
2023-04-09T08:07:31.353Z,24.00
2023-04-09T08:09:57.897Z,24.75
2023-04-09T08:12:27.029Z,24.02
2023-04-09T08:14:53.759Z,24.20
2023-04-09T08:17:20.304Z,23.70
2023-04-09T08:19:47.119Z,24.80
2023-04-09T08:22:16.124Z,25.60
2023-04-09T08:24:43.823Z,26.67
2023-04-09T08:27:11.000Z,26.75
2023-04-09T08:29:38.788Z,25.63
2023-04-09T08:32:08.194Z,26.50
2023-04-09T08:34:34.906Z,26.25
2023-04-09T08:37:01.866Z,25.83
2023-04-09T08:39:28.645Z,24.80
2023-04-09T08:41:59.042Z,23.88
2023-04-09T08:44:32.040Z,24.67
2023-04-09T08:47:00.292Z,25.63
2023-04-09T08:49:29.294Z,25.92
2023-04-09T08:51:56.019Z,25.30
2023-04-09T08:54:23.481Z,26.65
2023-04-09T08:56:50.440Z,26.25
2023-04-09T08:59:21.185Z,25.55
2023-04-09T09:01:52.894Z,26.67
2023-04-09T09:04:27.042Z,26.35
2023-04-09T09:06:55.436Z,25.42
2023-04-09T09:09:23.301Z,26.67
2023-04-09T09:11:51.059Z,26.48
2023-04-09T09:14:20.762Z,27.63
2023-04-09T09:16:58.739Z,26.65
2023-04-09T09:19:27.822Z,26.15
2023-04-09T09:21:59.391Z,27.10
2023-04-09T09:24:28.868Z,26.55
2023-04-09T09:26:55.853Z,26.90
2023-04-09T09:29:22.669Z,26.40
2023-04-09T09:31:51.802Z,27.33
2023-04-09T09:34:19.786Z,26.20
2023-04-09T09:36:47.621Z,24.75
2023-04-09T09:39:18.175Z,31.33
2023-04-09T09:41:47.574Z,27.73
2023-04-09T09:44:33.373Z,25.95
2023-04-09T09:47:05.537Z,26.83
2023-04-09T09:49:34.425Z,32.08
2023-04-09T09:52:06.381Z,28.58
2023-04-09T09:54:43.171Z,27.45
2023-04-09T09:57:13.730Z,26.92
2023-04-09T10:00:00.744Z,26.67
2023-04-09T10:02:34.747Z,25.02
2023-04-09T10:05:02.175Z,24.95
2023-04-09T10:07:29.860Z,23.23
2023-04-09T10:09:58.401Z,23.75
2023-04-09T10:12:25.952Z,24.95
2023-04-09T10:14:56.076Z,26.30
2023-04-09T10:17:22.947Z,26.50
2023-04-09T10:20:05.475Z,23.52
2023-04-09T10:22:36.348Z,21.27
2023-04-09T10:25:06.687Z,21.65
2023-04-09T10:27:33.300Z,23.30
2023-04-09T10:30:02.820Z,22.90
2023-04-09T10:32:36.333Z,23.30
2023-04-09T10:35:04.192Z,22.13
2023-04-09T10:37:31.856Z,23.35
2023-04-09T10:40:03.620Z,22.27
2023-04-09T10:42:32.849Z,23.15
2023-04-09T10:45:12.994Z,23.30
2023-04-09T10:47:41.509Z,19.67
2023-04-09T10:50:30.829Z,20.23
2023-04-09T10:53:00.776Z,18.30
2023-04-09T10:55:38.003Z,15.73
2023-04-09T10:58:11.321Z,17.58
2023-04-09T11:00:44.482Z,16.40
2023-04-09T11:03:33.165Z,16.08
2023-04-09T11:06:11.847Z,18.08
2023-04-09T11:08:39.257Z,20.02
2023-04-09T11:11:06.063Z,17.88
2023-04-09T11:13:33.029Z,19.80
2023-04-09T11:16:01.402Z,20.15
2023-04-09T11:18:31.074Z,19.83
2023-04-09T11:21:06.726Z,19.08
2023-04-09T11:23:34.871Z,18.98
2023-04-09T11:26:03.779Z,18.58
2023-04-09T11:28:32.743Z,17.25
2023-04-09T11:30:59.644Z,16.88
2023-04-09T11:33:34.587Z,16.33
2023-04-09T11:36:04.467Z,16.02
2023-04-09T11:38:31.780Z,15.77
2023-04-09T11:40:58.452Z,15.75
2023-04-09T11:43:29.640Z,16.17
2023-04-09T11:45:59.221Z,15.95
2023-04-09T11:48:28.521Z,15.68
2023-04-09T11:50:55.326Z,15.93
2023-04-09T11:53:23.720Z,14.43
2023-04-09T11:55:52.582Z,14.30
2023-04-09T11:58:26.040Z,14.77
2023-04-09T12:00:56.462Z,15.60
2023-04-09T12:03:31.241Z,16.52
2023-04-09T12:06:03.515Z,15.48
2023-04-09T12:08:35.091Z,14.85
2023-04-09T12:11:13.322Z,13.32
2023-04-09T12:13:45.836Z,12.10
2023-04-09T12:16:15.802Z,12.50
2023-04-09T12:18:42.551Z,11.32
2023-04-09T12:21:11.621Z,10.63
2023-04-09T12:23:38.321Z,12.10
2023-04-09T12:26:05.317Z,12.07
2023-04-09T12:28:31.964Z,11.20
2023-04-09T12:30:59.660Z,11.38
2023-04-09T12:33:28.573Z,13.35
2023-04-09T12:35:58.448Z,11.30
2023-04-09T12:38:25.449Z,10.68
2023-04-09T12:40:52.047Z,11.95
2023-04-09T12:43:18.721Z,11.15
2023-04-09T12:45:48.187Z,10.55
2023-04-09T12:48:19.559Z,10.50
2023-04-09T12:50:46.171Z,9.82
2023-04-09T12:53:12.767Z,9.90
2023-04-09T12:55:42.888Z,10.40
2023-04-09T12:58:11.712Z,10.30
2023-04-09T13:00:38.330Z,10.55
2023-04-09T13:03:07.550Z,11.30
2023-04-09T13:05:35.651Z,10.27
2023-04-09T13:08:05.027Z,10.35
2023-04-09T13:10:31.682Z,9.38
2023-04-09T13:12:58.504Z,9.15
2023-04-09T13:15:27.830Z,9.60
2023-04-09T13:17:54.511Z,10.13
2023-04-09T13:20:23.236Z,10.05
2023-04-09T13:22:52.435Z,9.35
2023-04-09T13:25:21.694Z,8.13
2023-04-09T13:27:50.716Z,8.77
2023-04-09T13:30:21.838Z,8.82
2023-04-09T13:32:48.535Z,7.90
2023-04-09T13:35:15.390Z,8.45
2023-04-09T13:37:42.106Z,7.78
2023-04-09T13:40:11.583Z,8.45
2023-04-09T13:42:39.313Z,7.85
2023-04-09T13:45:06.652Z,8.20
2023-04-09T13:47:35.749Z,8.60
2023-04-09T13:50:02.854Z,7.90
2023-04-09T13:52:29.853Z,8.15
2023-04-09T13:54:56.631Z,7.85
2023-04-09T13:57:23.288Z,8.10
2023-04-09T13:59:50.450Z,7.95
2023-04-09T14:02:18.206Z,7.68
2023-04-09T14:04:47.382Z,8.20
2023-04-09T14:07:14.020Z,7.75
2023-04-09T14:09:40.694Z,7.90
2023-04-09T14:12:09.523Z,8.27
2023-04-09T14:14:36.169Z,7.93
2023-04-09T14:17:02.817Z,7.85
2023-04-09T14:19:29.374Z,7.10
2023-04-09T14:21:56.070Z,7.25
2023-04-09T14:24:23.249Z,8.73
2023-04-09T14:26:53.280Z,7.18
2023-04-09T14:29:21.042Z,7.70
2023-04-09T14:31:47.836Z,7.22
2023-04-09T14:34:14.453Z,6.80
2023-04-09T14:36:41.118Z,7.63
2023-04-09T14:39:07.688Z,7.32
2023-04-09T14:41:35.943Z,8.15
2023-04-09T14:44:02.553Z,8.65
2023-04-09T14:46:29.169Z,7.63
2023-04-09T14:48:55.812Z,7.50
2023-04-09T14:51:22.666Z,8.02
2023-04-09T14:53:49.382Z,8.35
2023-04-09T14:56:18.138Z,7.78
2023-04-09T14:58:44.813Z,7.50
2023-04-09T15:01:11.413Z,7.40
2023-04-09T15:03:38.203Z,7.47
2023-04-09T15:06:11.296Z,7.30
2023-04-09T15:08:40.528Z,6.97
2023-04-09T15:11:09.822Z,7.40
2023-04-09T15:13:36.411Z,7.70
2023-04-09T15:16:03.036Z,6.95
2023-04-09T15:18:31.836Z,6.90
2023-04-09T15:21:00.945Z,7.00
2023-04-09T15:23:27.512Z,7.28
2023-04-09T15:25:54.093Z,8.25
2023-04-09T15:28:20.942Z,6.93
2023-04-09T15:30:47.520Z,7.55
2023-04-09T15:33:14.092Z,7.38
2023-04-09T15:35:40.787Z,7.25
2023-04-09T15:38:07.403Z,8.05
2023-04-09T15:40:33.950Z,7.90
2023-04-09T15:43:00.708Z,7.43
2023-04-09T15:45:29.691Z,8.30
2023-04-09T15:47:56.560Z,8.07
2023-04-09T15:50:23.344Z,7.50
2023-04-09T15:52:52.288Z,7.05
2023-04-09T15:55:18.878Z,7.43
2023-04-09T15:57:46.864Z,7.53
2023-04-09T16:00:14.078Z,7.03
2023-04-09T16:02:40.933Z,6.90
2023-04-09T16:05:10.933Z,6.93
2023-04-09T16:07:42.854Z,6.20
2023-04-09T16:10:14.706Z,6.82
2023-04-09T16:12:43.566Z,7.00
2023-04-09T16:15:10.747Z,6.85
2023-04-09T16:17:40.896Z,7.03
2023-04-09T16:20:08.534Z,6.88
2023-04-09T16:22:35.658Z,6.57
2023-04-09T16:25:02.333Z,6.60
2023-04-09T16:27:31.932Z,6.32
2023-04-09T16:30:06.045Z,5.88
2023-04-09T16:32:32.725Z,6.00
2023-04-09T16:35:00.776Z,5.78
2023-04-09T16:37:28.018Z,6.07
2023-04-09T16:39:57.303Z,6.15
2023-04-09T16:42:24.032Z,6.63
2023-04-09T16:44:50.815Z,5.70
2023-04-09T16:47:17.410Z,5.75
2023-04-09T16:49:44.069Z,5.50
2023-04-09T16:52:10.737Z,6.00
2023-04-09T16:54:42.083Z,4.78
2023-04-09T16:57:08.666Z,5.93
2023-04-09T16:59:35.600Z,5.05
2023-04-09T17:02:02.603Z,6.15
2023-04-09T17:04:38.246Z,5.15
2023-04-09T17:07:04.914Z,5.32
2023-04-09T17:09:36.292Z,4.38
2023-04-09T17:12:03.038Z,5.25
2023-04-09T17:14:29.877Z,5.55
2023-04-09T17:16:56.865Z,5.22
2023-04-09T17:19:23.494Z,4.93
2023-04-09T17:21:51.330Z,5.00
2023-04-09T17:24:18.202Z,4.93
2023-04-09T17:26:45.827Z,4.97
2023-04-09T17:29:17.480Z,4.68
2023-04-09T17:31:51.401Z,4.85
2023-04-09T17:34:19.152Z,5.00
2023-04-09T17:36:50.406Z,4.72
2023-04-09T17:39:17.035Z,4.75
2023-04-09T17:41:43.870Z,5.20
2023-04-09T17:44:10.453Z,4.95
2023-04-09T17:46:37.486Z,4.80
2023-04-09T17:49:04.420Z,4.25
2023-04-09T17:51:31.031Z,4.30
2023-04-09T17:53:57.670Z,5.15
2023-04-09T17:56:25.158Z,4.60
2023-04-09T17:58:54.544Z,4.85
2023-04-09T18:01:23.822Z,5.60
2023-04-09T18:03:50.979Z,4.32
2023-04-09T18:06:17.952Z,4.35
2023-04-09T18:08:44.765Z,4.80
2023-04-09T18:11:18.305Z,4.60
2023-04-09T18:13:44.940Z,5.05
2023-04-09T18:16:14.259Z,4.60
2023-04-09T18:18:43.254Z,4.78
2023-04-09T18:21:12.333Z,4.93
2023-04-09T18:23:40.506Z,4.80
2023-04-09T18:26:07.885Z,5.15
2023-04-09T18:28:35.355Z,6.47
2023-04-09T18:31:02.145Z,7.68
2023-04-09T18:33:28.909Z,6.93
2023-04-09T18:35:55.596Z,7.32
2023-04-09T18:38:24.916Z,7.10
2023-04-09T18:40:51.539Z,6.72
2023-04-09T18:43:18.120Z,7.00
2023-04-09T18:45:44.799Z,6.90
2023-04-09T18:48:11.381Z,6.93
2023-04-09T18:50:41.049Z,7.40
2023-04-09T18:53:07.707Z,6.50
2023-04-09T18:55:38.131Z,6.93
2023-04-09T18:58:08.806Z,7.63
2023-04-09T19:00:41.594Z,8.45
2023-04-09T19:03:11.316Z,8.48
2023-04-09T19:05:38.812Z,8.82
2023-04-09T19:08:06.825Z,8.50
2023-04-09T19:10:36.206Z,9.40
2023-04-09T19:13:03.128Z,9.38
2023-04-09T19:15:32.006Z,9.55
2023-04-09T19:17:58.645Z,9.82
2023-04-09T19:20:25.464Z,9.45
2023-04-09T19:22:57.374Z,9.63
2023-04-09T19:25:27.248Z,9.77
2023-04-09T19:27:54.299Z,9.27
2023-04-09T19:30:23.336Z,10.07
2023-04-09T19:32:53.207Z,8.18
2023-04-09T19:35:19.870Z,8.38
2023-04-09T19:37:46.718Z,9.38
2023-04-09T19:40:17.941Z,9.20
2023-04-09T19:42:49.039Z,8.85
2023-04-09T19:45:15.804Z,9.13
2023-04-09T19:47:42.719Z,9.02
2023-04-09T19:50:09.839Z,9.45
2023-04-09T19:52:37.782Z,9.32
2023-04-09T19:55:05.286Z,9.43
2023-04-09T19:57:31.975Z,10.15
2023-04-09T19:59:58.582Z,9.43
2023-04-09T20:02:25.610Z,10.18
2023-04-09T20:04:52.430Z,9.75
2023-04-09T20:07:19.301Z,10.57
2023-04-09T20:09:46.984Z,10.35
2023-04-09T20:12:13.536Z,10.60
2023-04-09T20:14:40.620Z,10.48
2023-04-09T20:17:09.759Z,9.77
2023-04-09T20:19:38.727Z,10.60
2023-04-09T20:22:05.458Z,10.57
2023-04-09T20:24:35.390Z,10.68
2023-04-09T20:27:02.182Z,10.02
2023-04-09T20:29:28.853Z,10.00
2023-04-09T20:31:55.745Z,10.27
2023-04-09T20:34:27.037Z,9.85
2023-04-09T20:36:54.476Z,8.85
2023-04-09T20:39:21.906Z,8.90
2023-04-09T20:41:48.872Z,9.05
2023-04-09T20:44:15.669Z,8.98
2023-04-09T20:46:42.475Z,9.20
2023-04-09T20:49:09.149Z,8.43
2023-04-09T20:51:36.062Z,8.95
2023-04-09T20:54:02.798Z,9.02
2023-04-09T20:56:29.824Z,9.07
2023-04-09T20:58:58.874Z,8.82
2023-04-09T21:01:28.628Z,9.45
2023-04-09T21:03:58.359Z,9.43
2023-04-09T21:06:25.204Z,9.75
2023-04-09T21:08:52.088Z,9.88
2023-04-09T21:11:18.818Z,9.98
2023-04-09T21:16:17.290Z,10.20
2023-04-09T21:18:46.966Z,9.45
2023-04-09T21:21:14.291Z,9.80
2023-04-09T21:23:46.088Z,9.15
2023-04-09T21:26:13.781Z,9.38
2023-04-09T21:28:41.142Z,9.02
2023-04-09T21:31:12.904Z,10.20
2023-04-09T21:33:40.158Z,9.45
2023-04-09T21:36:08.443Z,10.20
2023-04-09T21:38:38.668Z,9.45
2023-04-09T21:41:08.628Z,9.77
2023-04-09T21:43:35.667Z,9.63
2023-04-09T21:46:03.183Z,9.15
2023-04-09T21:48:33.804Z,9.82
2023-04-09T21:51:01.111Z,9.80
2023-04-09T21:53:30.293Z,10.32
2023-04-09T21:55:57.444Z,9.70
2023-04-09T21:58:26.756Z,10.80
2023-04-09T22:00:53.476Z,10.10
2023-04-09T22:03:22.353Z,10.00
2023-04-09T22:05:49.487Z,11.00
2023-04-09T22:08:18.631Z,9.95
2023-04-09T22:10:45.498Z,10.30
2023-04-09T22:13:12.268Z,9.73
2023-04-09T22:15:42.150Z,9.48
2023-04-09T22:18:11.249Z,10.20
2023-04-09T22:20:41.353Z,9.93
2023-04-09T22:23:09.791Z,9.10
2023-04-09T22:25:41.607Z,9.23
2023-04-09T22:28:08.574Z,10.25
2023-04-09T22:30:35.472Z,10.20
2023-04-09T22:33:02.395Z,10.20
2023-04-09T22:35:32.490Z,9.50
2023-04-09T22:38:02.201Z,9.77
2023-04-09T22:40:33.745Z,9.77
2023-04-09T22:43:02.918Z,9.50
2023-04-09T22:45:32.306Z,10.07
2023-04-09T22:47:59.704Z,10.07
2023-04-09T22:50:30.222Z,9.80
2023-04-09T22:52:57.144Z,9.93
2023-04-09T22:55:31.534Z,9.50
2023-04-09T22:57:59.819Z,9.55
2023-04-09T23:00:27.360Z,8.60
2023-04-09T23:02:54.515Z,8.70
2023-04-09T23:05:21.355Z,9.07
2023-04-09T23:07:48.517Z,8.80
2023-04-09T23:10:19.946Z,8.80
2023-04-09T23:12:47.071Z,8.07
2023-04-09T23:15:14.012Z,8.52
2023-04-09T23:17:41.796Z,8.30
2023-04-09T23:20:11.657Z,8.23
2023-04-09T23:22:38.554Z,8.00
2023-04-09T23:25:08.268Z,8.85
2023-04-09T23:27:38.043Z,8.23
2023-04-09T23:30:06.064Z,7.22
2023-04-09T23:32:38.943Z,7.53
2023-04-09T23:35:06.848Z,7.72
2023-04-09T23:37:33.613Z,8.30
2023-04-09T23:40:00.483Z,8.50
2023-04-09T23:42:33.208Z,8.18
2023-04-09T23:45:04.419Z,7.90
2023-04-09T23:47:33.726Z,8.00
2023-04-09T23:50:05.462Z,7.70
2023-04-09T23:52:34.843Z,7.65
2023-04-09T23:55:02.740Z,8.10
2023-04-09T23:57:29.986Z,8.07
2023-04-09T23:59:59.984Z,6.88
